sensor_id;sensor_type;location;lat;lon;timestamp;P1;durP1;ratioP1;P2;durP2;ratioP2
78648;SDS011;67962;47.310;9.642;2023-06-14T00:00:11;4.75;;;2.15;;
78648;SDS011;67962;47.310;9.642;2023-06-14T00:02:40;5.65;;;2.22;;
78648;SDS011;67962;47.310;9.642;2023-06-14T00:05:08;4.78;;;2.25;;
78648;SDS011;67962;47.310;9.642;2023-06-14T00:07:40;4.13;;;2.47;;
78648;SDS011;67962;47.310;9.642;2023-06-14T00:10:10;4.45;;;2.40;;
78648;SDS011;67962;47.310;9.642;2023-06-14T00:12:37;3.85;;;2.25;;
78648;SDS011;67962;47.310;9.642;2023-06-14T00:15:04;3.95;;;2.13;;
78648;SDS011;67962;47.310;9.642;2023-06-14T00:17:30;8.05;;;2.65;;
78648;SDS011;67962;47.310;9.642;2023-06-14T00:19:56;3.15;;;1.92;;
78648;SDS011;67962;47.310;9.642;2023-06-14T00:22:23;3.08;;;2.03;;
78648;SDS011;67962;47.310;9.642;2023-06-14T00:24:55;4.10;;;2.58;;
78648;SDS011;67962;47.310;9.642;2023-06-14T00:27:21;3.65;;;2.20;;
78648;SDS011;67962;47.310;9.642;2023-06-14T00:29:47;2.80;;;2.00;;
78648;SDS011;67962;47.310;9.642;2023-06-14T00:32:12;5.03;;;2.35;;
78648;SDS011;67962;47.310;9.642;2023-06-14T00:34:38;5.07;;;2.20;;
78648;SDS011;67962;47.310;9.642;2023-06-14T00:37:04;4.57;;;2.17;;
78648;SDS011;67962;47.310;9.642;2023-06-14T00:39:30;4.13;;;1.90;;
78648;SDS011;67962;47.310;9.642;2023-06-14T00:41:55;4.30;;;2.33;;
78648;SDS011;67962;47.310;9.642;2023-06-14T00:44:22;3.42;;;2.25;;
78648;SDS011;67962;47.310;9.642;2023-06-14T00:46:48;5.35;;;2.63;;
78648;SDS011;67962;47.310;9.642;2023-06-14T00:49:14;7.70;;;2.33;;
78648;SDS011;67962;47.310;9.642;2023-06-14T00:51:42;4.88;;;2.58;;
78648;SDS011;67962;47.310;9.642;2023-06-14T00:54:08;3.45;;;2.17;;
78648;SDS011;67962;47.310;9.642;2023-06-14T00:56:38;4.57;;;2.00;;
78648;SDS011;67962;47.310;9.642;2023-06-14T00:59:04;9.60;;;2.50;;
78648;SDS011;67962;47.310;9.642;2023-06-14T01:01:31;5.47;;;2.33;;
78648;SDS011;67962;47.310;9.642;2023-06-14T01:03:59;7.15;;;2.13;;
78648;SDS011;67962;47.310;9.642;2023-06-14T01:06:49;3.80;;;2.17;;
78648;SDS011;67962;47.310;9.642;2023-06-14T01:09:33;5.28;;;2.40;;
78648;SDS011;67962;47.310;9.642;2023-06-14T01:12:13;4.00;;;2.30;;
78648;SDS011;67962;47.310;9.642;2023-06-14T01:14:46;4.30;;;2.13;;
78648;SDS011;67962;47.310;9.642;2023-06-14T01:17:15;4.07;;;2.22;;
78648;SDS011;67962;47.310;9.642;2023-06-14T01:19:44;3.42;;;2.00;;
78648;SDS011;67962;47.310;9.642;2023-06-14T01:22:11;4.72;;;2.25;;
78648;SDS011;67962;47.310;9.642;2023-06-14T01:24:36;3.13;;;2.00;;
78648;SDS011;67962;47.310;9.642;2023-06-14T01:27:04;4.28;;;2.40;;
78648;SDS011;67962;47.310;9.642;2023-06-14T01:29:32;3.65;;;2.15;;
78648;SDS011;67962;47.310;9.642;2023-06-14T01:32:01;4.32;;;2.28;;
78648;SDS011;67962;47.310;9.642;2023-06-14T01:34:28;5.28;;;2.25;;
78648;SDS011;67962;47.310;9.642;2023-06-14T01:36:54;4.22;;;2.22;;
78648;SDS011;67962;47.310;9.642;2023-06-14T01:39:20;4.22;;;2.35;;
78648;SDS011;67962;47.310;9.642;2023-06-14T01:41:47;4.20;;;2.22;;
78648;SDS011;67962;47.310;9.642;2023-06-14T01:44:16;5.50;;;2.47;;
78648;SDS011;67962;47.310;9.642;2023-06-14T01:46:42;3.47;;;2.20;;
78648;SDS011;67962;47.310;9.642;2023-06-14T01:49:10;5.78;;;2.20;;
78648;SDS011;67962;47.310;9.642;2023-06-14T01:51:36;4.40;;;2.10;;
78648;SDS011;67962;47.310;9.642;2023-06-14T01:54:02;3.40;;;1.98;;
78648;SDS011;67962;47.310;9.642;2023-06-14T01:56:28;5.68;;;2.80;;
78648;SDS011;67962;47.310;9.642;2023-06-14T01:58:54;3.47;;;2.00;;
78648;SDS011;67962;47.310;9.642;2023-06-14T02:01:20;4.30;;;1.75;;
78648;SDS011;67962;47.310;9.642;2023-06-14T02:03:46;3.90;;;2.20;;
78648;SDS011;67962;47.310;9.642;2023-06-14T02:06:13;4.85;;;2.20;;
78648;SDS011;67962;47.310;9.642;2023-06-14T02:08:40;5.22;;;2.58;;
78648;SDS011;67962;47.310;9.642;2023-06-14T02:11:07;6.68;;;2.25;;
78648;SDS011;67962;47.310;9.642;2023-06-14T02:13:33;6.28;;;2.25;;
78648;SDS011;67962;47.310;9.642;2023-06-14T02:15:59;4.38;;;2.20;;
78648;SDS011;67962;47.310;9.642;2023-06-14T02:18:25;4.00;;;2.08;;
78648;SDS011;67962;47.310;9.642;2023-06-14T02:20:52;3.47;;;2.25;;
78648;SDS011;67962;47.310;9.642;2023-06-14T02:23:18;4.00;;;2.10;;
78648;SDS011;67962;47.310;9.642;2023-06-14T02:25:43;5.75;;;2.00;;
78648;SDS011;67962;47.310;9.642;2023-06-14T02:28:11;4.32;;;2.05;;
78648;SDS011;67962;47.310;9.642;2023-06-14T02:30:36;6.32;;;2.40;;
78648;SDS011;67962;47.310;9.642;2023-06-14T02:33:02;6.20;;;2.22;;
78648;SDS011;67962;47.310;9.642;2023-06-14T02:35:30;6.30;;;2.35;;
78648;SDS011;67962;47.310;9.642;2023-06-14T02:37:55;3.70;;;2.22;;
78648;SDS011;67962;47.310;9.642;2023-06-14T02:40:22;3.28;;;2.05;;
78648;SDS011;67962;47.310;9.642;2023-06-14T02:42:47;7.53;;;2.28;;
78648;SDS011;67962;47.310;9.642;2023-06-14T02:45:13;4.38;;;2.53;;
78648;SDS011;67962;47.310;9.642;2023-06-14T02:47:40;5.07;;;2.10;;
78648;SDS011;67962;47.310;9.642;2023-06-14T02:50:05;3.58;;;1.98;;
78648;SDS011;67962;47.310;9.642;2023-06-14T02:52:32;4.93;;;2.33;;
78648;SDS011;67962;47.310;9.642;2023-06-14T02:54:58;7.07;;;2.10;;
78648;SDS011;67962;47.310;9.642;2023-06-14T02:57:24;4.07;;;2.17;;
78648;SDS011;67962;47.310;9.642;2023-06-14T02:59:49;3.13;;;1.92;;
78648;SDS011;67962;47.310;9.642;2023-06-14T03:02:15;4.55;;;2.42;;
78648;SDS011;67962;47.310;9.642;2023-06-14T03:04:42;3.80;;;2.20;;
78648;SDS011;67962;47.310;9.642;2023-06-14T03:07:09;4.18;;;2.05;;
78648;SDS011;67962;47.310;9.642;2023-06-14T03:09:38;4.00;;;2.10;;
78648;SDS011;67962;47.310;9.642;2023-06-14T03:12:04;3.53;;;2.15;;
78648;SDS011;67962;47.310;9.642;2023-06-14T03:14:34;4.32;;;2.25;;
78648;SDS011;67962;47.310;9.642;2023-06-14T03:17:00;3.50;;;2.05;;
78648;SDS011;67962;47.310;9.642;2023-06-14T03:19:27;4.57;;;2.25;;
78648;SDS011;67962;47.310;9.642;2023-06-14T03:21:53;3.80;;;2.13;;
78648;SDS011;67962;47.310;9.642;2023-06-14T03:24:22;2.92;;;2.05;;
78648;SDS011;67962;47.310;9.642;2023-06-14T03:26:48;4.22;;;2.17;;
78648;SDS011;67962;47.310;9.642;2023-06-14T03:29:14;4.18;;;2.63;;
78648;SDS011;67962;47.310;9.642;2023-06-14T03:31:55;5.15;;;2.35;;
78648;SDS011;67962;47.310;9.642;2023-06-14T03:34:23;4.22;;;2.00;;
78648;SDS011;67962;47.310;9.642;2023-06-14T03:36:48;3.47;;;1.90;;
78648;SDS011;67962;47.310;9.642;2023-06-14T03:39:14;3.42;;;2.00;;
78648;SDS011;67962;47.310;9.642;2023-06-14T03:41:40;4.88;;;2.28;;
78648;SDS011;67962;47.310;9.642;2023-06-14T03:44:06;6.35;;;2.47;;
78648;SDS011;67962;47.310;9.642;2023-06-14T03:46:31;3.78;;;2.10;;
78648;SDS011;67962;47.310;9.642;2023-06-14T03:48:57;6.78;;;2.40;;
78648;SDS011;67962;47.310;9.642;2023-06-14T03:51:23;3.28;;;2.03;;
78648;SDS011;67962;47.310;9.642;2023-06-14T03:53:50;5.47;;;2.47;;
78648;SDS011;67962;47.310;9.642;2023-06-14T03:56:16;3.97;;;2.30;;
78648;SDS011;67962;47.310;9.642;2023-06-14T03:58:41;5.78;;;2.20;;
78648;SDS011;67962;47.310;9.642;2023-06-14T04:01:07;4.55;;;2.15;;
78648;SDS011;67962;47.310;9.642;2023-06-14T04:03:33;3.78;;;2.20;;
78648;SDS011;67962;47.310;9.642;2023-06-14T04:05:58;4.57;;;2.47;;
78648;SDS011;67962;47.310;9.642;2023-06-14T04:08:25;4.25;;;2.20;;
78648;SDS011;67962;47.310;9.642;2023-06-14T04:10:50;4.43;;;2.10;;
78648;SDS011;67962;47.310;9.642;2023-06-14T04:13:16;6.25;;;2.30;;
78648;SDS011;67962;47.310;9.642;2023-06-14T04:15:42;4.60;;;2.30;;
78648;SDS011;67962;47.310;9.642;2023-06-14T04:18:10;5.00;;;2.10;;
78648;SDS011;67962;47.310;9.642;2023-06-14T04:20:37;4.07;;;2.25;;
78648;SDS011;67962;47.310;9.642;2023-06-14T04:23:15;3.20;;;2.13;;
78648;SDS011;67962;47.310;9.642;2023-06-14T04:25:43;6.72;;;2.28;;
78648;SDS011;67962;47.310;9.642;2023-06-14T04:28:12;3.72;;;2.00;;
78648;SDS011;67962;47.310;9.642;2023-06-14T04:30:40;4.32;;;2.20;;
78648;SDS011;67962;47.310;9.642;2023-06-14T04:33:06;3.60;;;2.40;;
78648;SDS011;67962;47.310;9.642;2023-06-14T04:35:32;3.72;;;2.22;;
78648;SDS011;67962;47.310;9.642;2023-06-14T04:37:58;4.47;;;2.20;;
78648;SDS011;67962;47.310;9.642;2023-06-14T04:40:24;3.83;;;2.38;;
78648;SDS011;67962;47.310;9.642;2023-06-14T04:42:50;3.50;;;2.20;;
78648;SDS011;67962;47.310;9.642;2023-06-14T04:45:16;3.80;;;2.28;;
78648;SDS011;67962;47.310;9.642;2023-06-14T04:47:42;3.92;;;2.10;;
78648;SDS011;67962;47.310;9.642;2023-06-14T04:50:09;6.32;;;2.45;;
78648;SDS011;67962;47.310;9.642;2023-06-14T04:52:36;4.07;;;2.22;;
78648;SDS011;67962;47.310;9.642;2023-06-14T04:55:02;4.65;;;2.70;;
78648;SDS011;67962;47.310;9.642;2023-06-14T04:57:28;6.03;;;2.47;;
78648;SDS011;67962;47.310;9.642;2023-06-14T04:59:54;4.53;;;2.40;;
78648;SDS011;67962;47.310;9.642;2023-06-14T05:02:23;4.43;;;2.38;;
78648;SDS011;67962;47.310;9.642;2023-06-14T05:04:50;4.82;;;2.38;;
78648;SDS011;67962;47.310;9.642;2023-06-14T05:07:17;7.25;;;2.85;;
78648;SDS011;67962;47.310;9.642;2023-06-14T05:09:43;3.83;;;2.03;;
78648;SDS011;67962;47.310;9.642;2023-06-14T05:12:09;4.85;;;2.53;;
78648;SDS011;67962;47.310;9.642;2023-06-14T05:14:35;4.15;;;2.50;;
78648;SDS011;67962;47.310;9.642;2023-06-14T05:17:01;3.20;;;2.38;;
78648;SDS011;67962;47.310;9.642;2023-06-14T05:19:27;5.50;;;2.63;;
78648;SDS011;67962;47.310;9.642;2023-06-14T05:21:53;4.65;;;2.50;;
78648;SDS011;67962;47.310;9.642;2023-06-14T05:24:19;5.22;;;3.08;;
78648;SDS011;67962;47.310;9.642;2023-06-14T05:26:45;4.65;;;2.70;;
78648;SDS011;67962;47.310;9.642;2023-06-14T05:29:12;5.88;;;2.88;;
78648;SDS011;67962;47.310;9.642;2023-06-14T05:31:38;7.13;;;2.40;;
78648;SDS011;67962;47.310;9.642;2023-06-14T05:34:04;6.18;;;2.70;;
78648;SDS011;67962;47.310;9.642;2023-06-14T05:36:29;5.25;;;2.50;;
78648;SDS011;67962;47.310;9.642;2023-06-14T05:38:55;3.88;;;2.53;;
78648;SDS011;67962;47.310;9.642;2023-06-14T05:41:24;4.40;;;2.55;;
78648;SDS011;67962;47.310;9.642;2023-06-14T05:43:54;4.38;;;2.65;;
78648;SDS011;67962;47.310;9.642;2023-06-14T05:46:20;6.97;;;2.58;;
78648;SDS011;67962;47.310;9.642;2023-06-14T05:48:49;7.90;;;3.17;;
78648;SDS011;67962;47.310;9.642;2023-06-14T05:51:15;4.10;;;2.47;;
78648;SDS011;67962;47.310;9.642;2023-06-14T05:53:43;8.88;;;2.90;;
78648;SDS011;67962;47.310;9.642;2023-06-14T05:56:12;4.65;;;2.80;;
78648;SDS011;67962;47.310;9.642;2023-06-14T05:58:39;5.47;;;2.67;;
78648;SDS011;67962;47.310;9.642;2023-06-14T06:01:05;4.63;;;2.40;;
78648;SDS011;67962;47.310;9.642;2023-06-14T06:03:31;7.97;;;2.83;;
78648;SDS011;67962;47.310;9.642;2023-06-14T06:05:57;4.35;;;2.55;;
78648;SDS011;67962;47.310;9.642;2023-06-14T06:08:23;6.43;;;2.80;;
78648;SDS011;67962;47.310;9.642;2023-06-14T06:10:49;4.88;;;2.75;;
78648;SDS011;67962;47.310;9.642;2023-06-14T06:13:15;4.45;;;2.60;;
78648;SDS011;67962;47.310;9.642;2023-06-14T06:15:41;5.63;;;2.47;;
78648;SDS011;67962;47.310;9.642;2023-06-14T06:18:06;8.10;;;2.58;;
78648;SDS011;67962;47.310;9.642;2023-06-14T06:20:32;5.53;;;2.67;;
78648;SDS011;67962;47.310;9.642;2023-06-14T06:22:58;4.00;;;2.50;;
78648;SDS011;67962;47.310;9.642;2023-06-14T06:25:27;4.68;;;2.58;;
78648;SDS011;67962;47.310;9.642;2023-06-14T06:27:54;5.15;;;2.67;;
78648;SDS011;67962;47.310;9.642;2023-06-14T06:30:23;6.93;;;2.70;;
78648;SDS011;67962;47.310;9.642;2023-06-14T06:32:49;3.88;;;2.42;;
78648;SDS011;67962;47.310;9.642;2023-06-14T06:35:16;7.55;;;2.80;;
78648;SDS011;67962;47.310;9.642;2023-06-14T06:37:42;4.03;;;2.90;;
78648;SDS011;67962;47.310;9.642;2023-06-14T06:40:08;4.30;;;2.65;;
78648;SDS011;67962;47.310;9.642;2023-06-14T06:42:35;6.15;;;2.55;;
78648;SDS011;67962;47.310;9.642;2023-06-14T06:45:01;4.90;;;2.83;;
78648;SDS011;67962;47.310;9.642;2023-06-14T06:47:27;5.53;;;2.55;;
78648;SDS011;67962;47.310;9.642;2023-06-14T06:49:52;7.15;;;2.67;;
78648;SDS011;67962;47.310;9.642;2023-06-14T06:52:18;8.02;;;3.00;;
78648;SDS011;67962;47.310;9.642;2023-06-14T06:54:44;5.38;;;2.80;;
78648;SDS011;67962;47.310;9.642;2023-06-14T06:57:10;3.95;;;2.55;;
78648;SDS011;67962;47.310;9.642;2023-06-14T06:59:36;5.93;;;2.55;;
78648;SDS011;67962;47.310;9.642;2023-06-14T07:02:02;5.43;;;2.63;;
78648;SDS011;67962;47.310;9.642;2023-06-14T07:04:28;7.55;;;2.63;;
78648;SDS011;67962;47.310;9.642;2023-06-14T07:06:54;8.13;;;3.08;;
78648;SDS011;67962;47.310;9.642;2023-06-14T07:09:20;5.75;;;2.95;;
78648;SDS011;67962;47.310;9.642;2023-06-14T07:11:46;10.07;;;3.22;;
78648;SDS011;67962;47.310;9.642;2023-06-14T07:14:12;5.70;;;3.30;;
78648;SDS011;67962;47.310;9.642;2023-06-14T07:16:38;5.40;;;2.97;;
78648;SDS011;67962;47.310;9.642;2023-06-14T07:19:04;5.65;;;3.10;;
78648;SDS011;67962;47.310;9.642;2023-06-14T07:21:30;5.90;;;3.00;;
78648;SDS011;67962;47.310;9.642;2023-06-14T07:23:56;7.05;;;2.85;;
78648;SDS011;67962;47.310;9.642;2023-06-14T07:26:21;5.72;;;2.63;;
78648;SDS011;67962;47.310;9.642;2023-06-14T07:28:48;4.75;;;2.75;;
78648;SDS011;67962;47.310;9.642;2023-06-14T07:31:17;4.95;;;2.95;;
78648;SDS011;67962;47.310;9.642;2023-06-14T07:33:44;3.55;;;2.58;;
78648;SDS011;67962;47.310;9.642;2023-06-14T07:36:10;6.30;;;2.60;;
78648;SDS011;67962;47.310;9.642;2023-06-14T07:38:36;3.78;;;2.53;;
78648;SDS011;67962;47.310;9.642;2023-06-14T07:41:02;4.43;;;2.72;;
78648;SDS011;67962;47.310;9.642;2023-06-14T07:43:28;9.63;;;2.78;;
78648;SDS011;67962;47.310;9.642;2023-06-14T07:45:54;6.38;;;2.90;;
78648;SDS011;67962;47.310;9.642;2023-06-14T07:48:20;3.45;;;2.60;;
78648;SDS011;67962;47.310;9.642;2023-06-14T07:50:46;4.68;;;2.78;;
78648;SDS011;67962;47.310;9.642;2023-06-14T07:53:11;11.35;;;2.42;;
78648;SDS011;67962;47.310;9.642;2023-06-14T07:55:37;6.43;;;3.00;;
78648;SDS011;67962;47.310;9.642;2023-06-14T07:58:04;6.75;;;2.65;;
78648;SDS011;67962;47.310;9.642;2023-06-14T08:00:33;3.83;;;2.78;;
78648;SDS011;67962;47.310;9.642;2023-06-14T08:02:59;6.03;;;3.10;;
78648;SDS011;67962;47.310;9.642;2023-06-14T08:05:25;8.40;;;2.63;;
78648;SDS011;67962;47.310;9.642;2023-06-14T08:07:52;6.78;;;3.00;;
78648;SDS011;67962;47.310;9.642;2023-06-14T08:10:18;7.13;;;3.03;;
78648;SDS011;67962;47.310;9.642;2023-06-14T08:12:44;7.72;;;2.63;;
78648;SDS011;67962;47.310;9.642;2023-06-14T08:15:10;8.43;;;2.75;;
78648;SDS011;67962;47.310;9.642;2023-06-14T08:17:36;6.70;;;3.28;;
78648;SDS011;67962;47.310;9.642;2023-06-14T08:20:02;5.13;;;2.53;;
78648;SDS011;67962;47.310;9.642;2023-06-14T08:22:29;4.20;;;2.60;;
78648;SDS011;67962;47.310;9.642;2023-06-14T08:24:58;6.72;;;2.97;;
78648;SDS011;67962;47.310;9.642;2023-06-14T08:27:26;5.18;;;3.20;;
78648;SDS011;67962;47.310;9.642;2023-06-14T08:29:51;3.95;;;2.80;;
78648;SDS011;67962;47.310;9.642;2023-06-14T08:32:17;5.38;;;3.08;;
78648;SDS011;67962;47.310;9.642;2023-06-14T08:34:43;5.25;;;2.67;;
78648;SDS011;67962;47.310;9.642;2023-06-14T08:37:08;4.47;;;2.70;;
78648;SDS011;67962;47.310;9.642;2023-06-14T08:39:34;5.15;;;2.92;;
78648;SDS011;67962;47.310;9.642;2023-06-14T08:42:01;6.60;;;3.08;;
78648;SDS011;67962;47.310;9.642;2023-06-14T08:44:28;4.80;;;2.90;;
78648;SDS011;67962;47.310;9.642;2023-06-14T08:46:55;5.55;;;3.22;;
78648;SDS011;67962;47.310;9.642;2023-06-14T08:49:24;7.35;;;3.42;;
78648;SDS011;67962;47.310;9.642;2023-06-14T08:51:55;3.72;;;2.90;;
78648;SDS011;67962;47.310;9.642;2023-06-14T08:54:25;4.13;;;3.17;;
78648;SDS011;67962;47.310;9.642;2023-06-14T08:56:55;6.20;;;2.70;;
78648;SDS011;67962;47.310;9.642;2023-06-14T08:59:27;5.80;;;3.25;;
78648;SDS011;67962;47.310;9.642;2023-06-14T09:01:54;3.88;;;3.10;;
78648;SDS011;67962;47.310;9.642;2023-06-14T09:04:23;9.02;;;3.80;;
78648;SDS011;67962;47.310;9.642;2023-06-14T09:06:54;5.05;;;3.17;;
78648;SDS011;67962;47.310;9.642;2023-06-14T09:09:21;6.40;;;3.20;;
78648;SDS011;67962;47.310;9.642;2023-06-14T09:11:51;6.47;;;3.10;;
78648;SDS011;67962;47.310;9.642;2023-06-14T09:14:20;5.32;;;3.30;;
78648;SDS011;67962;47.310;9.642;2023-06-14T09:16:46;5.03;;;2.83;;
78648;SDS011;67962;47.310;9.642;2023-06-14T09:19:21;5.57;;;3.30;;
78648;SDS011;67962;47.310;9.642;2023-06-14T09:21:48;7.40;;;3.35;;
78648;SDS011;67962;47.310;9.642;2023-06-14T09:24:14;4.95;;;3.15;;
78648;SDS011;67962;47.310;9.642;2023-06-14T09:26:40;5.88;;;3.38;;
78648;SDS011;67962;47.310;9.642;2023-06-14T09:29:06;4.72;;;3.30;;
78648;SDS011;67962;47.310;9.642;2023-06-14T09:31:32;6.93;;;3.58;;
78648;SDS011;67962;47.310;9.642;2023-06-14T09:33:58;4.72;;;3.17;;
78648;SDS011;67962;47.310;9.642;2023-06-14T09:36:26;4.75;;;3.00;;
78648;SDS011;67962;47.310;9.642;2023-06-14T09:38:56;4.22;;;3.05;;
78648;SDS011;67962;47.310;9.642;2023-06-14T09:43:58;6.50;;;3.13;;
78648;SDS011;67962;47.310;9.642;2023-06-14T09:46:26;4.85;;;3.30;;
78648;SDS011;67962;47.310;9.642;2023-06-14T09:48:52;4.43;;;3.08;;
78648;SDS011;67962;47.310;9.642;2023-06-14T09:51:18;9.63;;;3.58;;
78648;SDS011;67962;47.310;9.642;2023-06-14T09:53:48;5.25;;;3.05;;
78648;SDS011;67962;47.310;9.642;2023-06-14T09:56:19;3.95;;;3.20;;
78648;SDS011;67962;47.310;9.642;2023-06-14T09:58:53;5.40;;;3.05;;
78648;SDS011;67962;47.310;9.642;2023-06-14T10:01:20;6.07;;;2.83;;
78648;SDS011;67962;47.310;9.642;2023-06-14T10:03:49;4.57;;;2.85;;
78648;SDS011;67962;47.310;9.642;2023-06-14T10:06:18;6.72;;;3.30;;
78648;SDS011;67962;47.310;9.642;2023-06-14T10:08:46;5.38;;;3.08;;
78648;SDS011;67962;47.310;9.642;2023-06-14T10:11:14;10.68;;;3.22;;
78648;SDS011;67962;47.310;9.642;2023-06-14T10:13:40;15.27;;;3.47;;
78648;SDS011;67962;47.310;9.642;2023-06-14T10:21:58;8.80;;;3.50;;
78648;SDS011;67962;47.310;9.642;2023-06-14T10:24:44;8.02;;;3.17;;
78648;SDS011;67962;47.310;9.642;2023-06-14T10:27:13;5.07;;;3.13;;
78648;SDS011;67962;47.310;9.642;2023-06-14T10:32:23;4.15;;;3.20;;
78648;SDS011;67962;47.310;9.642;2023-06-14T10:34:53;4.22;;;3.08;;
78648;SDS011;67962;47.310;9.642;2023-06-14T10:37:24;5.00;;;3.28;;
78648;SDS011;67962;47.310;9.642;2023-06-14T10:39:50;4.50;;;3.47;;
78648;SDS011;67962;47.310;9.642;2023-06-14T10:42:16;5.82;;;3.13;;
78648;SDS011;67962;47.310;9.642;2023-06-14T10:44:43;6.68;;;3.38;;
78648;SDS011;67962;47.310;9.642;2023-06-14T10:47:30;7.60;;;3.00;;
78648;SDS011;67962;47.310;9.642;2023-06-14T10:50:06;7.47;;;3.67;;
78648;SDS011;67962;47.310;9.642;2023-06-14T10:52:40;5.38;;;2.72;;
78648;SDS011;67962;47.310;9.642;2023-06-14T10:55:07;9.25;;;3.08;;
78648;SDS011;67962;47.310;9.642;2023-06-14T10:57:43;7.25;;;3.30;;
78648;SDS011;67962;47.310;9.642;2023-06-14T11:00:17;3.85;;;3.00;;
78648;SDS011;67962;47.310;9.642;2023-06-14T11:05:25;5.65;;;3.33;;
78648;SDS011;67962;47.310;9.642;2023-06-14T11:08:56;6.15;;;3.40;;
78648;SDS011;67962;47.310;9.642;2023-06-14T11:11:05;4.47;;;2.90;;
78648;SDS011;67962;47.310;9.642;2023-06-14T11:13:32;4.05;;;3.10;;
78648;SDS011;67962;47.310;9.642;2023-06-14T11:15:59;5.10;;;2.97;;
78648;SDS011;67962;47.310;9.642;2023-06-14T11:18:25;5.97;;;3.00;;
78648;SDS011;67962;47.310;9.642;2023-06-14T11:20:52;5.78;;;3.25;;
78648;SDS011;67962;47.310;9.642;2023-06-14T11:23:18;3.83;;;2.85;;
78648;SDS011;67962;47.310;9.642;2023-06-14T11:25:50;7.97;;;3.05;;
78648;SDS011;67962;47.310;9.642;2023-06-14T11:28:16;6.00;;;3.00;;
78648;SDS011;67962;47.310;9.642;2023-06-14T11:30:44;6.43;;;3.33;;
78648;SDS011;67962;47.310;9.642;2023-06-14T11:33:11;5.65;;;3.03;;
78648;SDS011;67962;47.310;9.642;2023-06-14T11:35:42;5.70;;;3.30;;
78648;SDS011;67962;47.310;9.642;2023-06-14T11:38:09;5.75;;;3.20;;
78648;SDS011;67962;47.310;9.642;2023-06-14T11:40:37;6.15;;;3.05;;
78648;SDS011;67962;47.310;9.642;2023-06-14T11:43:03;5.63;;;3.13;;
78648;SDS011;67962;47.310;9.642;2023-06-14T11:45:29;6.90;;;2.90;;
78648;SDS011;67962;47.310;9.642;2023-06-14T11:47:56;3.42;;;2.88;;
78648;SDS011;67962;47.310;9.642;2023-06-14T11:50:25;3.80;;;3.00;;
78648;SDS011;67962;47.310;9.642;2023-06-14T11:52:55;4.15;;;2.75;;
78648;SDS011;67962;47.310;9.642;2023-06-14T11:55:32;11.75;;;3.00;;
78648;SDS011;67962;47.310;9.642;2023-06-14T11:58:02;3.88;;;2.83;;
78648;SDS011;67962;47.310;9.642;2023-06-14T12:00:28;7.00;;;2.90;;
78648;SDS011;67962;47.310;9.642;2023-06-14T12:02:54;6.50;;;2.95;;
78648;SDS011;67962;47.310;9.642;2023-06-14T12:05:21;4.10;;;3.00;;
78648;SDS011;67962;47.310;9.642;2023-06-14T12:07:47;4.55;;;2.40;;
78648;SDS011;67962;47.310;9.642;2023-06-14T12:10:13;3.92;;;2.83;;
78648;SDS011;67962;47.310;9.642;2023-06-14T12:12:39;4.78;;;2.90;;
78648;SDS011;67962;47.310;9.642;2023-06-14T12:15:06;4.45;;;3.15;;
78648;SDS011;67962;47.310;9.642;2023-06-14T12:17:34;9.00;;;3.05;;
78648;SDS011;67962;47.310;9.642;2023-06-14T12:20:05;3.90;;;2.72;;
78648;SDS011;67962;47.310;9.642;2023-06-14T12:22:47;5.32;;;2.95;;
78648;SDS011;67962;47.310;9.642;2023-06-14T12:25:28;4.50;;;2.88;;
78648;SDS011;67962;47.310;9.642;2023-06-14T12:27:59;5.38;;;2.90;;
78648;SDS011;67962;47.310;9.642;2023-06-14T12:30:35;3.85;;;2.80;;
78648;SDS011;67962;47.310;9.642;2023-06-14T12:33:02;3.83;;;2.45;;
78648;SDS011;67962;47.310;9.642;2023-06-14T12:35:28;5.57;;;2.70;;
78648;SDS011;67962;47.310;9.642;2023-06-14T12:37:54;3.58;;;2.72;;
78648;SDS011;67962;47.310;9.642;2023-06-14T12:40:21;3.92;;;2.67;;
78648;SDS011;67962;47.310;9.642;2023-06-14T12:42:47;5.55;;;2.83;;
78648;SDS011;67962;47.310;9.642;2023-06-14T12:45:13;4.60;;;2.75;;
78648;SDS011;67962;47.310;9.642;2023-06-14T12:47:38;3.13;;;2.42;;
78648;SDS011;67962;47.310;9.642;2023-06-14T12:50:04;5.00;;;2.83;;
78648;SDS011;67962;47.310;9.642;2023-06-14T12:52:31;3.70;;;2.30;;
78648;SDS011;67962;47.310;9.642;2023-06-14T12:55:01;7.35;;;2.80;;
78648;SDS011;67962;47.310;9.642;2023-06-14T12:57:29;3.60;;;2.80;;
78648;SDS011;67962;47.310;9.642;2023-06-14T12:59:55;4.97;;;2.80;;
78648;SDS011;67962;47.310;9.642;2023-06-14T13:02:21;7.20;;;2.60;;
78648;SDS011;67962;47.310;9.642;2023-06-14T13:04:50;3.92;;;2.83;;
78648;SDS011;67962;47.310;9.642;2023-06-14T13:07:16;7.22;;;3.05;;
78648;SDS011;67962;47.310;9.642;2023-06-14T13:09:42;3.47;;;2.80;;
78648;SDS011;67962;47.310;9.642;2023-06-14T13:12:10;5.80;;;2.65;;
78648;SDS011;67962;47.310;9.642;2023-06-14T13:14:37;4.28;;;2.58;;
78648;SDS011;67962;47.310;9.642;2023-06-14T13:17:03;4.75;;;2.90;;
78648;SDS011;67962;47.310;9.642;2023-06-14T13:19:29;3.63;;;2.83;;
78648;SDS011;67962;47.310;9.642;2023-06-14T13:21:55;5.60;;;2.70;;
78648;SDS011;67962;47.310;9.642;2023-06-14T13:24:20;4.25;;;2.80;;
78648;SDS011;67962;47.310;9.642;2023-06-14T13:26:46;5.68;;;2.83;;
78648;SDS011;67962;47.310;9.642;2023-06-14T13:29:12;9.30;;;2.80;;
78648;SDS011;67962;47.310;9.642;2023-06-14T13:31:37;4.55;;;2.85;;
78648;SDS011;67962;47.310;9.642;2023-06-14T13:34:03;4.68;;;2.72;;
78648;SDS011;67962;47.310;9.642;2023-06-14T13:36:29;3.83;;;2.58;;
78648;SDS011;67962;47.310;9.642;2023-06-14T13:38:55;4.43;;;2.70;;
78648;SDS011;67962;47.310;9.642;2023-06-14T13:41:21;4.65;;;2.95;;
78648;SDS011;67962;47.310;9.642;2023-06-14T13:43:46;4.15;;;3.00;;
78648;SDS011;67962;47.310;9.642;2023-06-14T13:46:12;7.40;;;2.50;;
78648;SDS011;67962;47.310;9.642;2023-06-14T13:48:38;9.07;;;3.10;;
78648;SDS011;67962;47.310;9.642;2023-06-14T13:51:04;5.00;;;2.78;;
78648;SDS011;67962;47.310;9.642;2023-06-14T13:53:30;4.43;;;2.65;;
78648;SDS011;67962;47.310;9.642;2023-06-14T13:55:56;4.38;;;2.80;;
78648;SDS011;67962;47.310;9.642;2023-06-14T13:58:22;4.57;;;2.88;;
78648;SDS011;67962;47.310;9.642;2023-06-14T14:00:49;9.90;;;3.25;;
78648;SDS011;67962;47.310;9.642;2023-06-14T14:03:14;3.90;;;2.80;;
78648;SDS011;67962;47.310;9.642;2023-06-14T14:05:40;5.45;;;2.85;;
78648;SDS011;67962;47.310;9.642;2023-06-14T14:08:06;10.32;;;2.88;;
78648;SDS011;67962;47.310;9.642;2023-06-14T14:10:32;3.65;;;2.67;;
78648;SDS011;67962;47.310;9.642;2023-06-14T14:12:58;5.25;;;2.58;;
78648;SDS011;67962;47.310;9.642;2023-06-14T14:15:24;4.03;;;2.78;;
78648;SDS011;67962;47.310;9.642;2023-06-14T14:17:50;5.53;;;2.63;;
78648;SDS011;67962;47.310;9.642;2023-06-14T14:20:16;5.38;;;3.00;;
78648;SDS011;67962;47.310;9.642;2023-06-14T14:22:42;6.18;;;2.83;;
78648;SDS011;67962;47.310;9.642;2023-06-14T14:25:08;4.30;;;2.90;;
78648;SDS011;67962;47.310;9.642;2023-06-14T14:27:35;5.55;;;3.00;;
78648;SDS011;67962;47.310;9.642;2023-06-14T14:30:02;3.40;;;2.45;;
78648;SDS011;67962;47.310;9.642;2023-06-14T14:32:28;3.15;;;2.50;;
78648;SDS011;67962;47.310;9.642;2023-06-14T14:34:54;3.13;;;2.58;;
78648;SDS011;67962;47.310;9.642;2023-06-14T14:37:20;6.20;;;2.83;;
78648;SDS011;67962;47.310;9.642;2023-06-14T14:39:46;4.55;;;2.65;;
78648;SDS011;67962;47.310;9.642;2023-06-14T14:42:11;5.28;;;2.63;;
78648;SDS011;67962;47.310;9.642;2023-06-14T14:44:38;8.40;;;2.55;;
78648;SDS011;67962;47.310;9.642;2023-06-14T14:47:04;4.55;;;2.55;;
78648;SDS011;67962;47.310;9.642;2023-06-14T14:49:31;4.93;;;2.83;;
78648;SDS011;67962;47.310;9.642;2023-06-14T14:51:57;4.97;;;2.63;;
78648;SDS011;67962;47.310;9.642;2023-06-14T14:54:23;4.95;;;2.80;;
78648;SDS011;67962;47.310;9.642;2023-06-14T14:56:50;2.83;;;2.33;;
78648;SDS011;67962;47.310;9.642;2023-06-14T14:59:16;5.25;;;2.75;;
78648;SDS011;67962;47.310;9.642;2023-06-14T15:01:42;6.65;;;2.50;;